createdAt,value
2022-10-12T00:02:23.901Z,5.63
2022-10-12T00:04:50.717Z,7.57
2022-10-12T00:07:17.626Z,9.47
2022-10-12T00:09:44.465Z,9.17
2022-10-12T00:12:11.202Z,10.27
2022-10-12T00:14:38.600Z,8.57
2022-10-12T00:17:05.389Z,7.67
2022-10-12T00:19:32.274Z,6.27
2022-10-12T00:21:58.973Z,10.10
2022-10-12T00:24:25.877Z,9.13
2022-10-12T00:26:52.767Z,7.93
2022-10-12T00:29:19.468Z,6.53
2022-10-12T00:31:46.267Z,8.37
2022-10-12T00:34:13.037Z,6.73
2022-10-12T00:36:39.785Z,9.50
2022-10-12T00:39:10.031Z,8.67
2022-10-12T00:41:42.536Z,6.53
2022-10-12T00:44:46.100Z,6.40
2022-10-12T00:47:28.073Z,4.63
2022-10-12T00:50:15.626Z,6.17
2022-10-12T00:52:58.438Z,8.47
2022-10-12T00:55:30.383Z,8.20
2022-10-12T00:57:58.537Z,7.23
2022-10-12T01:00:26.593Z,5.47
2022-10-12T01:02:55.518Z,5.23
2022-10-12T01:05:24.093Z,6.87
2022-10-12T01:07:51.420Z,8.07
2022-10-12T01:10:18.322Z,8.83
2022-10-12T01:12:49.519Z,7.90
2022-10-12T01:15:16.812Z,7.27
2022-10-12T01:18:06.264Z,8.80
2022-10-12T01:20:54.198Z,7.87
2022-10-12T01:23:38.734Z,6.10
2022-10-12T01:26:48.221Z,8.00
2022-10-12T01:30:01.674Z,5.83
2022-10-12T01:32:58.500Z,11.43
2022-10-12T01:36:00.468Z,7.87
2022-10-12T01:38:46.300Z,7.63
2022-10-12T01:41:28.544Z,7.40
2022-10-12T01:43:55.271Z,11.87
2022-10-12T01:46:24.973Z,8.33
2022-10-12T01:48:56.898Z,5.53
2022-10-12T01:51:38.916Z,10.03
2022-10-12T01:54:30.104Z,11.40
2022-10-12T01:57:40.302Z,12.77
2022-10-12T02:00:11.684Z,10.83
2022-10-12T02:02:54.736Z,9.00
2022-10-12T02:05:37.901Z,6.40
2022-10-12T02:08:18.604Z,6.13
2022-10-12T02:11:14.221Z,6.57
2022-10-12T02:14:08.948Z,5.10
2022-10-12T02:16:47.589Z,5.13
2022-10-12T02:19:21.625Z,7.90
2022-10-12T02:21:51.215Z,6.80
2022-10-12T02:24:20.371Z,6.00
2022-10-12T02:26:52.553Z,6.80
2022-10-12T02:29:33.988Z,7.80
2022-10-12T02:32:39.479Z,8.13
2022-10-12T02:35:16.005Z,4.77
2022-10-12T02:37:46.470Z,6.83
2022-10-12T02:40:30.164Z,9.13
2022-10-12T02:43:11.179Z,7.90
2022-10-12T02:45:44.863Z,4.70
2022-10-12T02:48:17.563Z,8.10
2022-10-12T02:50:45.850Z,10.07
2022-10-12T02:53:13.537Z,9.50
2022-10-12T02:56:06.976Z,11.43
2022-10-12T02:58:33.861Z,6.57
2022-10-12T03:01:00.671Z,6.43
2022-10-12T03:03:27.521Z,6.63
2022-10-12T03:05:54.539Z,5.93
2022-10-12T03:08:21.319Z,6.23
2022-10-12T03:10:48.041Z,6.20
2022-10-12T03:13:14.775Z,6.33
2022-10-12T03:15:41.546Z,6.67
2022-10-12T03:18:08.312Z,6.03
2022-10-12T03:20:35.079Z,8.37
2022-10-12T03:23:01.939Z,5.30
2022-10-12T03:25:28.844Z,6.07
2022-10-12T03:27:55.577Z,8.27
2022-10-12T03:30:22.291Z,6.60
2022-10-12T03:32:49.083Z,6.30
2022-10-12T03:35:15.992Z,8.47
2022-10-12T03:37:42.749Z,8.73
2022-10-12T03:40:10.404Z,9.43
2022-10-12T03:42:37.121Z,7.63
2022-10-12T03:45:04.931Z,11.50
2022-10-12T03:47:31.680Z,6.27
2022-10-12T03:49:58.386Z,9.83
2022-10-12T03:52:25.178Z,5.67
2022-10-12T03:54:51.882Z,5.77
2022-10-12T03:57:18.628Z,10.47
2022-10-12T03:59:45.386Z,8.43
2022-10-12T04:02:16.644Z,8.87
2022-10-12T04:04:44.381Z,6.07
2022-10-12T04:07:11.478Z,9.30
2022-10-12T04:09:38.318Z,10.23
2022-10-12T04:12:05.325Z,6.00
2022-10-12T04:14:32.023Z,7.07
2022-10-12T04:16:59.717Z,7.73
2022-10-12T04:19:26.484Z,7.43
2022-10-12T04:21:53.186Z,9.67
2022-10-12T04:24:20.284Z,10.23
2022-10-12T04:26:46.977Z,6.97
2022-10-12T04:29:14.270Z,7.60
2022-10-12T04:31:42.115Z,9.13
2022-10-12T04:34:12.025Z,9.47
2022-10-12T04:36:39.342Z,11.03
2022-10-12T04:39:06.227Z,7.77
2022-10-12T04:41:33.238Z,14.63
2022-10-12T04:43:59.993Z,9.70
2022-10-12T04:46:26.842Z,7.93
2022-10-12T04:48:53.567Z,8.10
2022-10-12T04:51:20.348Z,11.90
2022-10-12T04:53:47.055Z,6.97
2022-10-12T04:56:13.842Z,8.37
2022-10-12T04:58:40.608Z,6.07
2022-10-12T05:01:07.387Z,6.13
2022-10-12T05:03:38.210Z,7.60
2022-10-12T05:06:07.870Z,8.93
2022-10-12T05:08:34.588Z,9.00
2022-10-12T05:11:01.672Z,7.07
2022-10-12T05:13:28.757Z,8.27
2022-10-12T05:15:55.497Z,7.63
2022-10-12T05:18:22.223Z,9.17
2022-10-12T05:20:52.181Z,7.00
2022-10-12T05:23:21.308Z,5.67
2022-10-12T05:25:48.048Z,7.83
2022-10-12T05:28:14.801Z,6.40
2022-10-12T05:30:41.605Z,5.97
2022-10-12T05:33:08.392Z,5.87
2022-10-12T05:35:35.222Z,5.10
2022-10-12T05:38:01.935Z,8.63
2022-10-12T05:40:28.767Z,6.70
2022-10-12T05:42:55.566Z,11.53
2022-10-12T05:45:22.335Z,7.63
2022-10-12T05:47:49.086Z,6.60
2022-10-12T05:50:15.966Z,8.53
2022-10-12T05:52:42.707Z,6.27
2022-10-12T05:55:09.717Z,9.67
2022-10-12T05:57:37.696Z,9.43
2022-10-12T06:00:08.388Z,9.10
2022-10-12T06:02:35.757Z,9.93
2022-10-12T06:05:03.200Z,11.67
2022-10-12T06:07:29.919Z,8.60
2022-10-12T06:09:56.863Z,9.13
2022-10-12T06:12:24.276Z,15.47
2022-10-12T06:14:52.233Z,6.03
2022-10-12T06:17:19.126Z,7.43
2022-10-12T06:19:45.991Z,14.50
2022-10-12T06:22:12.865Z,8.70
2022-10-12T06:24:39.593Z,10.63
2022-10-12T06:27:06.411Z,6.67
2022-10-12T06:29:33.711Z,7.77
2022-10-12T06:32:00.426Z,12.33
2022-10-12T06:34:27.206Z,10.10
2022-10-12T06:36:57.062Z,9.63
2022-10-12T06:39:26.234Z,7.57
2022-10-12T06:41:54.475Z,13.73
2022-10-12T06:44:22.440Z,12.93
2022-10-12T06:46:50.517Z,21.37
2022-10-12T06:49:20.318Z,32.33
2022-10-12T06:51:47.166Z,28.40
2022-10-12T06:54:14.075Z,30.67
2022-10-12T06:56:40.832Z,14.33
2022-10-12T06:59:08.346Z,13.57
2022-10-12T07:01:35.168Z,7.87
2022-10-12T07:04:02.111Z,11.00
2022-10-12T07:06:28.897Z,11.37
2022-10-12T07:08:55.880Z,16.10
2022-10-12T07:11:22.797Z,11.60
2022-10-12T07:13:49.535Z,10.87
2022-10-12T07:16:16.643Z,10.93
2022-10-12T07:18:43.447Z,12.07
2022-10-12T07:21:10.270Z,10.00
2022-10-12T07:23:40.197Z,12.47
2022-10-12T07:26:09.617Z,10.07
2022-10-12T07:28:37.235Z,12.63
2022-10-12T07:31:07.195Z,14.60
2022-10-12T07:33:36.205Z,13.27
2022-10-12T07:36:13.992Z,7.77
2022-10-12T07:38:45.797Z,8.53
2022-10-12T07:41:13.093Z,11.17
2022-10-12T07:43:39.884Z,6.57
2022-10-12T07:46:07.424Z,9.23
2022-10-12T07:48:34.757Z,8.00
2022-10-12T07:51:10.277Z,9.18
2022-10-12T07:53:39.353Z,8.23
2022-10-12T07:56:15.150Z,6.75
2022-10-12T07:58:56.369Z,7.65
2022-10-12T08:01:27.757Z,8.75
2022-10-12T08:04:00.308Z,12.43
2022-10-12T08:06:32.421Z,7.70
2022-10-12T08:09:01.217Z,7.72
2022-10-12T08:11:29.600Z,5.97
2022-10-12T08:13:56.567Z,6.85
2022-10-12T08:16:24.101Z,7.00
2022-10-12T08:18:51.786Z,7.18
2022-10-12T08:21:19.083Z,8.82
2022-10-12T08:23:46.606Z,8.63
2022-10-12T08:26:15.758Z,10.98
2022-10-12T08:28:43.263Z,7.85
2022-10-12T08:31:14.786Z,9.13
2022-10-12T08:33:41.779Z,8.48
2022-10-12T08:36:09.183Z,9.48
2022-10-12T08:38:38.990Z,8.75
2022-10-12T08:41:39.704Z,10.63
2022-10-12T08:44:46.605Z,7.88
2022-10-12T08:47:38.693Z,7.65
2022-10-12T08:50:16.370Z,11.00
2022-10-12T08:52:56.173Z,8.93
2022-10-12T08:55:39.511Z,8.45
2022-10-12T08:58:36.622Z,6.93
2022-10-12T09:01:28.781Z,8.43
2022-10-12T09:04:20.505Z,7.78
2022-10-12T09:07:18.250Z,9.65
2022-10-12T09:10:02.659Z,9.23
2022-10-12T09:13:14.476Z,8.75
2022-10-12T09:15:49.412Z,5.70
2022-10-12T09:18:21.572Z,8.25
2022-10-12T09:20:54.697Z,7.18
2022-10-12T09:23:31.960Z,11.85
2022-10-12T09:26:10.840Z,6.85
2022-10-12T09:28:55.892Z,7.50
2022-10-12T09:31:51.921Z,7.43
2022-10-12T09:34:19.695Z,4.88
2022-10-12T09:36:46.692Z,6.45
2022-10-12T09:39:28.890Z,8.80
2022-10-12T09:41:56.470Z,6.28
2022-10-12T09:44:40.130Z,7.45
2022-10-12T09:47:23.654Z,5.65
2022-10-12T09:49:58.849Z,6.15
2022-10-12T09:52:42.503Z,5.97
2022-10-12T09:55:15.934Z,5.80
2022-10-12T09:57:54.481Z,6.25
2022-10-12T10:00:33.262Z,4.88
2022-10-12T10:03:01.740Z,9.70
2022-10-12T10:05:34.212Z,4.25
2022-10-12T10:08:24.260Z,5.50
2022-10-12T10:10:57.813Z,9.45
2022-10-12T10:13:30.556Z,6.00
2022-10-12T10:16:11.352Z,5.57
2022-10-12T10:18:48.630Z,8.00
2022-10-12T10:21:36.792Z,7.22
2022-10-12T10:24:19.708Z,8.57
2022-10-12T10:27:01.983Z,5.07
2022-10-12T10:29:40.714Z,5.53
2022-10-12T10:32:26.451Z,5.07
2022-10-12T10:35:22.053Z,4.85
2022-10-12T10:37:56.107Z,4.70
2022-10-12T10:40:26.134Z,5.38
2022-10-12T10:43:00.347Z,6.30
2022-10-12T10:45:32.783Z,5.43
2022-10-12T10:48:09.125Z,4.80
2022-10-12T10:50:40.797Z,5.45
2022-10-12T10:53:20.786Z,6.32
2022-10-12T10:56:05.519Z,6.38
2022-10-12T10:58:41.788Z,4.60
2022-10-12T11:01:32.477Z,4.90
2022-10-12T11:04:19.973Z,7.57
2022-10-12T11:06:56.437Z,6.80
2022-10-12T11:09:40.406Z,5.80
2022-10-12T11:12:16.215Z,7.13
2022-10-12T11:14:58.454Z,6.07
2022-10-12T11:17:43.962Z,6.95
2022-10-12T11:20:47.887Z,7.82
2022-10-12T11:23:27.071Z,9.18
2022-10-12T11:26:17.522Z,9.23
2022-10-12T11:28:44.547Z,9.00
2022-10-12T11:31:28.645Z,8.98
2022-10-12T11:33:59.460Z,8.30
2022-10-12T11:36:30.499Z,7.47
2022-10-12T11:39:08.018Z,8.88
2022-10-12T11:42:03.222Z,9.35
2022-10-12T11:44:47.641Z,6.35
2022-10-12T11:47:38.549Z,10.27
2022-10-12T11:50:38.783Z,8.65
2022-10-12T11:53:41.849Z,8.90
2022-10-12T11:56:23.260Z,8.18
2022-10-12T11:59:01.129Z,9.68
2022-10-12T12:01:47.070Z,6.88
2022-10-12T12:04:44.140Z,9.43
2022-10-12T12:07:23.031Z,7.88
2022-10-12T12:09:51.339Z,9.35
2022-10-12T12:12:32.238Z,8.43
2022-10-12T12:15:05.274Z,5.55
2022-10-12T12:17:34.298Z,8.13
2022-10-12T12:20:23.586Z,6.72
2022-10-12T12:22:54.715Z,7.53
2022-10-12T12:25:33.144Z,5.47
2022-10-12T12:28:25.538Z,5.78
2022-10-12T12:31:01.386Z,6.10
2022-10-12T12:33:35.123Z,9.63
2022-10-12T12:36:38.454Z,5.60
2022-10-12T12:39:20.339Z,7.20
2022-10-12T12:42:01.350Z,7.38
2022-10-12T12:44:38.249Z,6.70
2022-10-12T12:47:20.558Z,7.22
2022-10-12T12:50:00.501Z,6.22
2022-10-12T12:52:39.505Z,6.05
2022-10-12T12:55:34.317Z,5.30
2022-10-12T12:58:31.129Z,6.65
2022-10-12T13:01:20.126Z,7.38
2022-10-12T13:04:32.884Z,7.25
2022-10-12T13:07:17.702Z,4.70
2022-10-12T13:10:28.039Z,4.43
2022-10-12T13:13:22.131Z,3.75
2022-10-12T13:19:37.318Z,6.43
2022-10-12T13:22:31.817Z,7.95
2022-10-12T13:25:12.873Z,4.68
2022-10-12T13:27:49.097Z,5.75
2022-10-12T13:30:41.078Z,5.85
2022-10-12T13:33:11.246Z,7.57
2022-10-12T13:35:55.559Z,8.32
2022-10-12T13:38:26.685Z,8.02
2022-10-12T13:41:07.039Z,6.30
2022-10-12T13:43:36.465Z,5.95
2022-10-12T13:46:03.858Z,5.95
2022-10-12T13:48:54.308Z,5.05
2022-10-12T13:51:30.946Z,4.88
2022-10-12T13:53:58.105Z,3.50
2022-10-12T13:56:28.937Z,6.70
2022-10-12T13:59:06.715Z,7.05
2022-10-12T14:02:02.909Z,5.28
2022-10-12T14:04:35.069Z,4.53
2022-10-12T14:07:17.867Z,5.30
2022-10-12T14:09:52.623Z,8.00
2022-10-12T14:12:25.209Z,8.55
2022-10-12T14:14:53.750Z,9.10
2022-10-12T14:17:21.544Z,5.13
2022-10-12T14:19:55.151Z,3.40
2022-10-12T14:22:33.193Z,5.97
2022-10-12T14:25:20.308Z,6.63
2022-10-12T14:27:54.353Z,5.22
2022-10-12T14:30:28.559Z,5.82
2022-10-12T14:33:09.792Z,7.20
2022-10-12T14:35:41.940Z,7.88
2022-10-12T14:38:49.445Z,6.65
2022-10-12T14:41:42.761Z,9.43
2022-10-12T14:44:10.828Z,7.57
2022-10-12T14:46:41.755Z,7.55
2022-10-12T14:49:19.650Z,7.75
2022-10-12T14:51:48.455Z,5.57
2022-10-12T14:54:15.754Z,4.22
2022-10-12T14:56:42.475Z,6.72
2022-10-12T14:59:09.659Z,7.13
2022-10-12T15:01:40.954Z,6.85
2022-10-12T15:04:13.359Z,5.10
2022-10-12T15:06:40.538Z,5.20
2022-10-12T15:09:07.305Z,9.97
2022-10-12T15:11:34.082Z,7.17
2022-10-12T15:14:00.817Z,9.97
2022-10-12T15:16:29.430Z,6.37
2022-10-12T15:18:56.214Z,5.80
2022-10-12T15:21:23.094Z,7.23
2022-10-12T15:23:50.305Z,8.83
2022-10-12T15:26:18.644Z,8.07
2022-10-12T15:28:45.618Z,6.37
2022-10-12T15:31:17.808Z,11.30
2022-10-12T15:33:45.376Z,7.70
2022-10-12T15:36:12.422Z,5.00
2022-10-12T15:38:39.804Z,7.70
2022-10-12T15:41:18.209Z,7.83
2022-10-12T15:43:45.001Z,6.97
2022-10-12T15:46:12.279Z,8.17
2022-10-12T15:48:40.287Z,10.13
2022-10-12T15:51:18.214Z,11.37
2022-10-12T15:53:45.037Z,13.67
2022-10-12T15:56:15.057Z,16.07
2022-10-12T15:58:42.518Z,11.60
2022-10-12T16:01:15.190Z,14.23
2022-10-12T16:03:42.623Z,10.13
2022-10-12T16:06:10.817Z,11.20
2022-10-12T16:08:37.813Z,12.37
2022-10-12T16:11:14.437Z,8.60
2022-10-12T16:13:47.950Z,9.27
2022-10-12T16:16:17.715Z,10.17
2022-10-12T16:18:44.914Z,9.30
2022-10-12T16:21:12.110Z,10.70
2022-10-12T16:23:40.525Z,10.50
2022-10-12T16:26:14.457Z,8.27
2022-10-12T16:28:41.807Z,9.20
2022-10-12T16:31:12.380Z,11.47
2022-10-12T16:33:39.612Z,11.30
2022-10-12T16:36:15.725Z,11.80
2022-10-12T16:38:43.868Z,10.40
2022-10-12T16:41:16.717Z,10.70
2022-10-12T16:43:44.185Z,11.13
2022-10-12T16:46:10.949Z,11.97
2022-10-12T16:48:37.810Z,16.20
2022-10-12T16:51:13.481Z,12.97
2022-10-12T16:53:42.378Z,11.27
2022-10-12T16:56:09.666Z,12.13
2022-10-12T16:58:36.380Z,9.80
2022-10-12T17:01:12.424Z,12.50
2022-10-12T17:03:40.520Z,12.33
2022-10-12T17:06:08.101Z,13.67
2022-10-12T17:08:36.106Z,10.57
2022-10-12T17:11:13.593Z,8.23
2022-10-12T17:13:45.191Z,11.07
2022-10-12T17:16:33.492Z,8.37
2022-10-12T17:19:00.392Z,12.83
2022-10-12T17:21:28.071Z,11.20
2022-10-12T17:24:00.409Z,20.17
2022-10-12T17:26:27.976Z,15.57
2022-10-12T17:28:55.474Z,11.67
2022-10-12T17:31:22.335Z,10.43
2022-10-12T17:33:49.232Z,12.93
2022-10-12T17:36:16.161Z,10.60
2022-10-12T17:38:42.903Z,12.57
2022-10-12T17:41:09.671Z,13.80
2022-10-12T17:43:36.373Z,12.10
2022-10-12T17:46:06.065Z,11.20
2022-10-12T17:48:33.248Z,19.10
2022-10-12T17:51:06.020Z,18.57
2022-10-12T17:53:32.782Z,10.93
2022-10-12T17:56:04.451Z,9.37
2022-10-12T17:58:31.560Z,10.87
2022-10-12T18:01:05.052Z,11.07
2022-10-12T18:03:31.900Z,9.17
2022-10-12T18:06:12.368Z,11.60
2022-10-12T18:08:39.665Z,9.37
2022-10-12T18:11:07.753Z,11.50
2022-10-12T18:13:36.179Z,12.50
2022-10-12T18:16:09.821Z,9.40
2022-10-12T18:18:38.181Z,15.70
2022-10-12T18:21:11.433Z,13.60
2022-10-12T18:23:38.195Z,15.50
2022-10-12T18:26:07.848Z,16.57
2022-10-12T18:28:35.317Z,19.40
2022-10-12T18:31:02.702Z,16.43
2022-10-12T18:33:29.926Z,13.20
2022-10-12T18:36:04.283Z,17.40
2022-10-12T18:38:32.093Z,15.27
2022-10-12T18:41:28.158Z,16.37
2022-10-12T18:44:00.548Z,18.50
2022-10-12T18:46:34.670Z,11.87
2022-10-12T18:49:05.230Z,10.40
2022-10-12T18:51:39.713Z,13.03
2022-10-12T18:54:11.549Z,11.77
2022-10-12T18:56:38.944Z,12.90
2022-10-12T18:59:07.068Z,11.47
2022-10-12T19:01:34.477Z,11.57
2022-10-12T19:04:02.602Z,11.60
2022-10-12T19:06:37.022Z,7.80
2022-10-12T19:09:05.509Z,9.70
2022-10-12T19:11:32.556Z,8.60
2022-10-12T19:14:06.906Z,10.23
2022-10-12T19:16:35.432Z,9.20
2022-10-12T19:19:06.720Z,14.07
2022-10-12T19:21:34.283Z,13.07
2022-10-12T19:24:06.598Z,13.03
2022-10-12T19:26:34.878Z,16.57
2022-10-12T19:29:02.110Z,13.80
2022-10-12T19:31:42.728Z,8.77
2022-10-12T19:34:13.265Z,11.37
2022-10-12T19:36:40.689Z,10.83
2022-10-12T19:39:13.461Z,9.07
2022-10-12T19:41:40.642Z,9.27
2022-10-12T19:44:07.832Z,9.80
2022-10-12T19:46:34.939Z,6.87
2022-10-12T19:49:01.802Z,7.93
2022-10-12T19:51:31.132Z,8.77
2022-10-12T19:54:01.570Z,10.47
2022-10-12T19:56:28.808Z,6.90
2022-10-12T19:58:57.821Z,12.17
2022-10-12T20:01:33.430Z,12.53
2022-10-12T20:04:01.569Z,13.63
2022-10-12T20:06:30.011Z,12.67
2022-10-12T20:09:00.026Z,10.40
2022-10-12T20:11:26.839Z,13.03
2022-10-12T20:13:55.068Z,18.23
2022-10-12T20:16:22.161Z,10.70
2022-10-12T20:18:50.377Z,12.70
2022-10-12T20:21:20.957Z,10.63
2022-10-12T20:23:48.286Z,9.83
2022-10-12T20:26:22.283Z,11.80
2022-10-12T20:28:50.303Z,12.07
2022-10-12T20:31:19.244Z,15.93
2022-10-12T20:33:52.252Z,14.43
2022-10-12T20:36:28.109Z,9.60
2022-10-12T20:38:56.477Z,8.80
2022-10-12T20:41:24.497Z,10.83
2022-10-12T20:43:57.226Z,9.70
2022-10-12T20:46:25.525Z,12.43
2022-10-12T20:48:58.711Z,10.60
2022-10-12T20:51:35.980Z,9.60
2022-10-12T20:54:05.723Z,10.17
2022-10-12T20:56:34.411Z,14.27
2022-10-12T20:59:01.946Z,9.33
2022-10-12T21:01:29.584Z,11.80
2022-10-12T21:03:56.690Z,13.23
2022-10-12T21:06:24.009Z,13.37
2022-10-12T21:08:53.515Z,10.20
2022-10-12T21:11:21.536Z,11.00
2022-10-12T21:13:48.342Z,9.97
2022-10-12T21:16:15.822Z,10.83
2022-10-12T21:18:43.030Z,12.77
2022-10-12T21:21:20.121Z,10.67
2022-10-12T21:23:58.981Z,11.53
2022-10-12T21:26:29.282Z,10.17
2022-10-12T21:28:56.317Z,11.80
2022-10-12T21:31:25.219Z,8.13
2022-10-12T21:33:55.109Z,12.40
2022-10-12T21:36:25.002Z,13.10
2022-10-12T21:38:52.005Z,10.30
2022-10-12T21:41:23.556Z,12.70
2022-10-12T21:43:51.529Z,9.70
2022-10-12T21:46:25.145Z,11.13
2022-10-12T21:48:53.065Z,15.73
2022-10-12T21:51:23.195Z,12.77
2022-10-12T21:53:50.739Z,11.30
2022-10-12T21:56:31.840Z,12.53
2022-10-12T21:59:01.495Z,10.90
2022-10-12T22:01:37.079Z,11.50
2022-10-12T22:04:07.712Z,14.23
2022-10-12T22:06:35.152Z,7.73
2022-10-12T22:09:09.781Z,10.10
2022-10-12T22:11:37.983Z,11.10
2022-10-12T22:14:08.787Z,14.83
2022-10-12T22:16:36.973Z,15.17
2022-10-12T22:19:07.742Z,10.03
2022-10-12T22:21:36.379Z,10.73
2022-10-12T22:24:03.747Z,9.37
2022-10-12T22:26:30.700Z,13.13
2022-10-12T22:28:58.011Z,8.73
2022-10-12T22:31:25.119Z,8.80
2022-10-12T22:33:53.321Z,11.97
2022-10-12T22:36:20.240Z,10.67
2022-10-12T22:38:47.268Z,9.57
2022-10-12T22:41:18.415Z,13.07
2022-10-12T22:43:45.306Z,8.63
2022-10-12T22:46:12.463Z,11.30
2022-10-12T22:48:39.353Z,11.00
2022-10-12T22:51:07.855Z,8.07
2022-10-12T22:53:35.590Z,8.90
2022-10-12T22:56:15.660Z,6.47
2022-10-12T22:58:42.866Z,8.77
2022-10-12T23:01:14.022Z,12.33
2022-10-12T23:03:41.298Z,8.73
2022-10-12T23:06:09.999Z,11.30
2022-10-12T23:08:37.057Z,7.47
2022-10-12T23:11:11.838Z,10.60
2022-10-12T23:13:40.308Z,8.90
2022-10-12T23:16:17.466Z,7.77
2022-10-12T23:18:44.665Z,7.47
2022-10-12T23:21:15.856Z,8.40
2022-10-12T23:23:44.924Z,6.60
2022-10-12T23:26:21.617Z,9.60
2022-10-12T23:28:50.170Z,15.97
2022-10-12T23:31:20.755Z,10.30
2022-10-12T23:33:47.844Z,7.53
2022-10-12T23:36:17.318Z,6.63
2022-10-12T23:38:45.465Z,9.03
2022-10-12T23:41:13.634Z,7.83
2022-10-12T23:43:40.648Z,8.00
2022-10-12T23:46:08.388Z,11.07
2022-10-12T23:48:35.293Z,7.77
2022-10-12T23:51:02.346Z,12.43
2022-10-12T23:53:29.181Z,7.93
2022-10-12T23:55:56.416Z,12.23
2022-10-12T23:58:23.265Z,9.57
